sensor_id;sensor_type;location;lat;lon;timestamp;P1;durP1;ratioP1;P2;durP2;ratioP2
65753;SDS011;52488;47.502;18.940;2022-09-30T00:00:17;1.77;;;1.30;;
65753;SDS011;52488;47.502;18.940;2022-09-30T00:01:24;2.30;;;1.00;;
65753;SDS011;52488;47.502;18.940;2022-09-30T00:02:28;1.10;;;0.80;;
65753;SDS011;52488;47.502;18.940;2022-09-30T00:03:31;1.87;;;0.73;;
65753;SDS011;52488;47.502;18.940;2022-09-30T00:04:33;2.35;;;0.90;;
65753;SDS011;52488;47.502;18.940;2022-09-30T00:05:36;1.10;;;0.50;;
65753;SDS011;52488;47.502;18.940;2022-09-30T00:06:39;0.88;;;0.60;;
65753;SDS011;52488;47.502;18.940;2022-09-30T00:07:42;0.95;;;0.50;;
65753;SDS011;52488;47.502;18.940;2022-09-30T00:08:45;0.40;;;0.40;;
65753;SDS011;52488;47.502;18.940;2022-09-30T00:09:48;4.85;;;0.80;;
65753;SDS011;52488;47.502;18.940;2022-09-30T00:12:26;0.30;;;0.30;;
65753;SDS011;52488;47.502;18.940;2022-09-30T00:13:33;3.17;;;0.40;;
65753;SDS011;52488;47.502;18.940;2022-09-30T00:14:37;0.17;;;0.17;;
65753;SDS011;52488;47.502;18.940;2022-09-30T00:15:45;0.30;;;0.30;;
65753;SDS011;52488;47.502;18.940;2022-09-30T00:16:48;0.70;;;0.40;;
65753;SDS011;52488;47.502;18.940;2022-09-30T00:17:51;2.35;;;0.50;;
65753;SDS011;52488;47.502;18.940;2022-09-30T00:18:54;1.85;;;0.30;;
65753;SDS011;52488;47.502;18.940;2022-09-30T00:19:58;0.62;;;0.40;;
65753;SDS011;52488;47.502;18.940;2022-09-30T00:21:00;2.87;;;0.40;;
65753;SDS011;52488;47.502;18.940;2022-09-30T00:22:03;0.35;;;0.35;;
65753;SDS011;52488;47.502;18.940;2022-09-30T00:23:06;1.25;;;0.30;;
65753;SDS011;52488;47.502;18.940;2022-09-30T00:24:09;3.03;;;0.45;;
65753;SDS011;52488;47.502;18.940;2022-09-30T00:25:12;0.50;;;0.32;;
65753;SDS011;52488;47.502;18.940;2022-09-30T00:26:16;3.20;;;0.50;;
65753;SDS011;52488;47.502;18.940;2022-09-30T00:27:20;3.60;;;0.40;;
65753;SDS011;52488;47.502;18.940;2022-09-30T00:28:23;0.40;;;0.37;;
65753;SDS011;52488;47.502;18.940;2022-09-30T00:29:26;2.25;;;0.30;;
65753;SDS011;52488;47.502;18.940;2022-09-30T00:30:29;0.40;;;0.30;;
65753;SDS011;52488;47.502;18.940;2022-09-30T00:31:32;0.40;;;0.40;;
65753;SDS011;52488;47.502;18.940;2022-09-30T00:32:36;0.70;;;0.40;;
65753;SDS011;52488;47.502;18.940;2022-09-30T00:33:39;0.30;;;0.30;;
65753;SDS011;52488;47.502;18.940;2022-09-30T00:34:44;0.40;;;0.40;;
65753;SDS011;52488;47.502;18.940;2022-09-30T00:35:47;1.15;;;0.50;;
65753;SDS011;52488;47.502;18.940;2022-09-30T00:36:50;0.60;;;0.60;;
65753;SDS011;52488;47.502;18.940;2022-09-30T00:37:54;0.62;;;0.60;;
65753;SDS011;52488;47.502;18.940;2022-09-30T00:38:57;0.93;;;0.70;;
65753;SDS011;52488;47.502;18.940;2022-09-30T00:39:59;0.60;;;0.60;;
65753;SDS011;52488;47.502;18.940;2022-09-30T00:41:02;0.85;;;0.75;;
65753;SDS011;52488;47.502;18.940;2022-09-30T00:42:06;1.00;;;0.80;;
65753;SDS011;52488;47.502;18.940;2022-09-30T00:43:13;0.60;;;0.52;;
65753;SDS011;52488;47.502;18.940;2022-09-30T00:45:50;1.33;;;0.62;;
65753;SDS011;52488;47.502;18.940;2022-09-30T00:46:57;0.85;;;0.70;;
65753;SDS011;52488;47.502;18.940;2022-09-30T00:49:19;0.95;;;0.75;;
65753;SDS011;52488;47.502;18.940;2022-09-30T00:50:28;0.80;;;0.80;;
65753;SDS011;52488;47.502;18.940;2022-09-30T00:51:35;2.75;;;0.90;;
65753;SDS011;52488;47.502;18.940;2022-09-30T00:52:43;1.58;;;0.95;;
65753;SDS011;52488;47.502;18.940;2022-09-30T00:53:53;2.53;;;1.00;;
65753;SDS011;52488;47.502;18.940;2022-09-30T00:55:03;1.40;;;1.30;;
65753;SDS011;52488;47.502;18.940;2022-09-30T00:56:11;2.92;;;1.37;;
65753;SDS011;52488;47.502;18.940;2022-09-30T00:57:18;3.30;;;0.90;;
65753;SDS011;52488;47.502;18.940;2022-09-30T00:58:27;3.00;;;1.62;;
65753;SDS011;52488;47.502;18.940;2022-09-30T00:59:38;5.30;;;1.70;;
65753;SDS011;52488;47.502;18.940;2022-09-30T01:00:44;1.08;;;0.90;;
65753;SDS011;52488;47.502;18.940;2022-09-30T01:01:47;3.22;;;1.00;;
65753;SDS011;52488;47.502;18.940;2022-09-30T01:02:50;1.23;;;0.65;;
65753;SDS011;52488;47.502;18.940;2022-09-30T01:04:37;3.55;;;1.00;;
65753;SDS011;52488;47.502;18.940;2022-09-30T01:05:23;0.62;;;0.50;;
65753;SDS011;52488;47.502;18.940;2022-09-30T01:06:28;0.70;;;0.70;;
65753;SDS011;52488;47.502;18.940;2022-09-30T01:07:31;1.10;;;1.00;;
65753;SDS011;52488;47.502;18.940;2022-09-30T01:08:35;1.40;;;1.05;;
65753;SDS011;52488;47.502;18.940;2022-09-30T01:09:40;1.27;;;0.57;;
65753;SDS011;52488;47.502;18.940;2022-09-30T01:10:44;1.10;;;0.47;;
65753;SDS011;52488;47.502;18.940;2022-09-30T01:11:47;0.45;;;0.43;;
65753;SDS011;52488;47.502;18.940;2022-09-30T01:12:50;0.28;;;0.28;;
65753;SDS011;52488;47.502;18.940;2022-09-30T01:13:54;0.75;;;0.30;;
65753;SDS011;52488;47.502;18.940;2022-09-30T01:15:01;0.40;;;0.40;;
65753;SDS011;52488;47.502;18.940;2022-09-30T01:21:44;1.65;;;0.37;;
65753;SDS011;52488;47.502;18.940;2022-09-30T01:30:11;0.95;;;0.40;;
65753;SDS011;52488;47.502;18.940;2022-09-30T01:31:36;0.55;;;0.30;;
65753;SDS011;52488;47.502;18.940;2022-09-30T01:37:36;0.40;;;0.40;;
65753;SDS011;52488;47.502;18.940;2022-09-30T01:38:54;2.95;;;0.65;;
65753;SDS011;52488;47.502;18.940;2022-09-30T01:41:32;0.40;;;0.32;;
65753;SDS011;52488;47.502;18.940;2022-09-30T01:44:09;1.08;;;0.40;;
65753;SDS011;52488;47.502;18.940;2022-09-30T01:45:33;0.73;;;0.60;;
65753;SDS011;52488;47.502;18.940;2022-09-30T01:46:45;0.52;;;0.52;;
65753;SDS011;52488;47.502;18.940;2022-09-30T01:49:49;1.83;;;0.62;;
65753;SDS011;52488;47.502;18.940;2022-09-30T01:51:34;1.40;;;0.57;;
65753;SDS011;52488;47.502;18.940;2022-09-30T01:53:03;3.30;;;0.98;;
65753;SDS011;52488;47.502;18.940;2022-09-30T01:54:23;1.60;;;0.90;;
65753;SDS011;52488;47.502;18.940;2022-09-30T01:55:28;1.98;;;0.82;;
65753;SDS011;52488;47.502;18.940;2022-09-30T01:56:54;0.90;;;0.80;;
65753;SDS011;52488;47.502;18.940;2022-09-30T01:58:06;2.25;;;0.80;;
65753;SDS011;52488;47.502;18.940;2022-09-30T02:00:24;1.45;;;1.20;;
65753;SDS011;52488;47.502;18.940;2022-09-30T02:01:49;3.25;;;1.00;;
65753;SDS011;52488;47.502;18.940;2022-09-30T02:02:57;1.52;;;0.90;;
65753;SDS011;52488;47.502;18.940;2022-09-30T02:04:05;1.00;;;0.82;;
65753;SDS011;52488;47.502;18.940;2022-09-30T02:05:18;1.25;;;1.02;;
65753;SDS011;52488;47.502;18.940;2022-09-30T02:06:30;1.10;;;0.98;;
65753;SDS011;52488;47.502;18.940;2022-09-30T02:07:40;1.10;;;1.00;;
65753;SDS011;52488;47.502;18.940;2022-09-30T02:08:50;1.60;;;0.90;;
65753;SDS011;52488;47.502;18.940;2022-09-30T02:10:21;1.65;;;0.77;;
65753;SDS011;52488;47.502;18.940;2022-09-30T02:11:29;0.85;;;0.73;;
65753;SDS011;52488;47.502;18.940;2022-09-30T02:12:38;1.42;;;0.93;;
65753;SDS011;52488;47.502;18.940;2022-09-30T02:13:50;1.48;;;1.10;;
65753;SDS011;52488;47.502;18.940;2022-09-30T02:15:04;2.00;;;1.40;;
65753;SDS011;52488;47.502;18.940;2022-09-30T02:16:11;2.67;;;1.62;;
65753;SDS011;52488;47.502;18.940;2022-09-30T02:17:24;4.00;;;1.58;;
65753;SDS011;52488;47.502;18.940;2022-09-30T02:18:33;1.92;;;1.40;;
65753;SDS011;52488;47.502;18.940;2022-09-30T02:19:44;1.58;;;1.48;;
65753;SDS011;52488;47.502;18.940;2022-09-30T02:20:51;3.15;;;1.30;;
65753;SDS011;52488;47.502;18.940;2022-09-30T02:22:01;2.58;;;1.55;;
65753;SDS011;52488;47.502;18.940;2022-09-30T02:23:11;1.42;;;1.10;;
65753;SDS011;52488;47.502;18.940;2022-09-30T02:24:19;1.20;;;1.10;;
65753;SDS011;52488;47.502;18.940;2022-09-30T02:25:31;1.40;;;1.02;;
65753;SDS011;52488;47.502;18.940;2022-09-30T02:26:38;2.35;;;1.08;;
65753;SDS011;52488;47.502;18.940;2022-09-30T02:27:45;1.10;;;1.00;;
65753;SDS011;52488;47.502;18.940;2022-09-30T02:28:56;1.08;;;0.98;;
65753;SDS011;52488;47.502;18.940;2022-09-30T02:30:06;1.98;;;0.70;;
65753;SDS011;52488;47.502;18.940;2022-09-30T02:31:11;1.60;;;1.10;;
65753;SDS011;52488;47.502;18.940;2022-09-30T02:32:21;2.42;;;1.80;;
65753;SDS011;52488;47.502;18.940;2022-09-30T02:33:30;1.95;;;1.25;;
65753;SDS011;52488;47.502;18.940;2022-09-30T02:34:37;1.35;;;1.25;;
65753;SDS011;52488;47.502;18.940;2022-09-30T02:35:46;1.33;;;1.23;;
65753;SDS011;52488;47.502;18.940;2022-09-30T02:36:56;2.35;;;1.85;;
65753;SDS011;52488;47.502;18.940;2022-09-30T02:38:06;3.37;;;2.15;;
65753;SDS011;52488;47.502;18.940;2022-09-30T02:41:08;2.95;;;2.00;;
65753;SDS011;52488;47.502;18.940;2022-09-30T02:42:24;2.50;;;2.30;;
65753;SDS011;52488;47.502;18.940;2022-09-30T02:43:29;1.37;;;1.27;;
65753;SDS011;52488;47.502;18.940;2022-09-30T02:44:33;2.30;;;1.20;;
65753;SDS011;52488;47.502;18.940;2022-09-30T02:45:42;2.55;;;1.23;;
65753;SDS011;52488;47.502;18.940;2022-09-30T02:48:30;1.40;;;1.30;;
65753;SDS011;52488;47.502;18.940;2022-09-30T02:49:48;1.98;;;1.40;;
65753;SDS011;52488;47.502;18.940;2022-09-30T02:51:02;5.20;;;1.62;;
65753;SDS011;52488;47.502;18.940;2022-09-30T02:53:35;2.62;;;1.80;;
65753;SDS011;52488;47.502;18.940;2022-09-30T02:57:03;6.82;;;2.05;;
65753;SDS011;52488;47.502;18.940;2022-09-30T02:59:15;2.45;;;2.25;;
65753;SDS011;52488;47.502;18.940;2022-09-30T03:00:18;2.78;;;2.53;;
65753;SDS011;52488;47.502;18.940;2022-09-30T03:01:21;3.97;;;2.45;;
65753;SDS011;52488;47.502;18.940;2022-09-30T03:02:25;2.20;;;2.00;;
65753;SDS011;52488;47.502;18.940;2022-09-30T03:03:31;3.20;;;2.70;;
65753;SDS011;52488;47.502;18.940;2022-09-30T03:04:38;3.78;;;2.70;;
65753;SDS011;52488;47.502;18.940;2022-09-30T03:05:43;3.20;;;2.47;;
65753;SDS011;52488;47.502;18.940;2022-09-30T03:06:46;2.65;;;2.45;;
65753;SDS011;52488;47.502;18.940;2022-09-30T03:07:49;2.67;;;2.35;;
65753;SDS011;52488;47.502;18.940;2022-09-30T03:08:54;4.62;;;3.10;;
65753;SDS011;52488;47.502;18.940;2022-09-30T03:09:57;7.28;;;2.83;;
65753;SDS011;52488;47.502;18.940;2022-09-30T03:11:00;4.70;;;3.17;;
65753;SDS011;52488;47.502;18.940;2022-09-30T03:17:39;3.97;;;3.55;;
65753;SDS011;52488;47.502;18.940;2022-09-30T03:20:30;3.75;;;3.33;;
65753;SDS011;52488;47.502;18.940;2022-09-30T03:23:16;3.95;;;3.55;;
65753;SDS011;52488;47.502;18.940;2022-09-30T03:27:47;4.03;;;3.10;;
65753;SDS011;52488;47.502;18.940;2022-09-30T03:30:25;3.50;;;3.20;;
65753;SDS011;52488;47.502;18.940;2022-09-30T03:35:26;5.28;;;3.53;;
65753;SDS011;52488;47.502;18.940;2022-09-30T03:37:45;5.40;;;3.25;;
65753;SDS011;52488;47.502;18.940;2022-09-30T03:39:10;3.47;;;2.90;;
65753;SDS011;52488;47.502;18.940;2022-09-30T03:42:23;3.53;;;3.10;;
65753;SDS011;52488;47.502;18.940;2022-09-30T03:43:32;3.05;;;2.47;;
65753;SDS011;52488;47.502;18.940;2022-09-30T03:44:40;3.67;;;2.83;;
65753;SDS011;52488;47.502;18.940;2022-09-30T03:47:29;2.72;;;2.53;;
65753;SDS011;52488;47.502;18.940;2022-09-30T03:48:38;3.00;;;2.65;;
65753;SDS011;52488;47.502;18.940;2022-09-30T03:49:44;3.58;;;3.28;;
65753;SDS011;52488;47.502;18.940;2022-09-30T03:50:52;3.33;;;3.03;;
65753;SDS011;52488;47.502;18.940;2022-09-30T03:51:55;3.62;;;2.92;;
65753;SDS011;52488;47.502;18.940;2022-09-30T03:53:00;3.60;;;2.40;;
65753;SDS011;52488;47.502;18.940;2022-09-30T03:54:05;2.58;;;2.37;;
65753;SDS011;52488;47.502;18.940;2022-09-30T03:55:11;3.47;;;2.50;;
65753;SDS011;52488;47.502;18.940;2022-09-30T03:56:14;4.72;;;1.92;;
65753;SDS011;52488;47.502;18.940;2022-09-30T03:57:17;2.83;;;2.28;;
65753;SDS011;52488;47.502;18.940;2022-09-30T03:58:20;3.55;;;2.47;;
65753;SDS011;52488;47.502;18.940;2022-09-30T03:59:26;2.50;;;2.30;;
65753;SDS011;52488;47.502;18.940;2022-09-30T04:00:29;2.55;;;2.35;;
65753;SDS011;52488;47.502;18.940;2022-09-30T04:01:33;2.72;;;2.42;;
65753;SDS011;52488;47.502;18.940;2022-09-30T04:02:36;2.92;;;2.67;;
65753;SDS011;52488;47.502;18.940;2022-09-30T04:03:39;3.00;;;2.70;;
65753;SDS011;52488;47.502;18.940;2022-09-30T04:04:41;3.20;;;2.70;;
65753;SDS011;52488;47.502;18.940;2022-09-30T04:05:45;2.87;;;2.37;;
65753;SDS011;52488;47.502;18.940;2022-09-30T04:06:48;3.33;;;2.90;;
65753;SDS011;52488;47.502;18.940;2022-09-30T04:07:51;4.35;;;2.70;;
65753;SDS011;52488;47.502;18.940;2022-09-30T04:08:53;3.83;;;3.22;;
65753;SDS011;52488;47.502;18.940;2022-09-30T04:09:56;3.30;;;3.00;;
65753;SDS011;52488;47.502;18.940;2022-09-30T04:10:59;3.90;;;3.40;;
65753;SDS011;52488;47.502;18.940;2022-09-30T04:12:02;4.18;;;3.37;;
65753;SDS011;52488;47.502;18.940;2022-09-30T04:13:05;3.78;;;3.35;;
65753;SDS011;52488;47.502;18.940;2022-09-30T04:14:08;3.40;;;3.10;;
65753;SDS011;52488;47.502;18.940;2022-09-30T04:15:10;4.45;;;3.40;;
65753;SDS011;52488;47.502;18.940;2022-09-30T04:16:13;4.22;;;3.62;;
65753;SDS011;52488;47.502;18.940;2022-09-30T04:17:16;3.90;;;3.42;;
65753;SDS011;52488;47.502;18.940;2022-09-30T04:18:18;5.28;;;3.80;;
65753;SDS011;52488;47.502;18.940;2022-09-30T04:19:21;5.10;;;3.17;;
65753;SDS011;52488;47.502;18.940;2022-09-30T04:20:24;4.53;;;3.50;;
65753;SDS011;52488;47.502;18.940;2022-09-30T04:21:27;4.15;;;3.67;;
65753;SDS011;52488;47.502;18.940;2022-09-30T04:22:30;5.05;;;3.95;;
65753;SDS011;52488;47.502;18.940;2022-09-30T04:23:42;4.30;;;3.78;;
65753;SDS011;52488;47.502;18.940;2022-09-30T04:24:44;4.82;;;3.62;;
65753;SDS011;52488;47.502;18.940;2022-09-30T04:25:54;4.32;;;3.72;;
65753;SDS011;52488;47.502;18.940;2022-09-30T04:26:57;4.47;;;3.70;;
65753;SDS011;52488;47.502;18.940;2022-09-30T04:28:00;3.83;;;3.42;;
65753;SDS011;52488;47.502;18.940;2022-09-30T04:29:03;6.72;;;3.80;;
65753;SDS011;52488;47.502;18.940;2022-09-30T04:30:05;4.07;;;3.53;;
65753;SDS011;52488;47.502;18.940;2022-09-30T04:31:09;4.22;;;3.83;;
65753;SDS011;52488;47.502;18.940;2022-09-30T04:32:13;5.15;;;4.05;;
65753;SDS011;52488;47.502;18.940;2022-09-30T04:33:15;4.97;;;3.67;;
65753;SDS011;52488;47.502;18.940;2022-09-30T04:34:18;6.43;;;4.20;;
65753;SDS011;52488;47.502;18.940;2022-09-30T04:35:21;6.12;;;4.53;;
65753;SDS011;52488;47.502;18.940;2022-09-30T04:36:24;4.97;;;3.97;;
65753;SDS011;52488;47.502;18.940;2022-09-30T04:37:27;5.85;;;3.97;;
65753;SDS011;52488;47.502;18.940;2022-09-30T04:38:30;6.65;;;4.47;;
65753;SDS011;52488;47.502;18.940;2022-09-30T04:39:33;4.28;;;3.70;;
65753;SDS011;52488;47.502;18.940;2022-09-30T04:40:36;4.90;;;3.78;;
65753;SDS011;52488;47.502;18.940;2022-09-30T04:41:39;5.72;;;4.12;;
65753;SDS011;52488;47.502;18.940;2022-09-30T04:42:42;5.65;;;4.18;;
65753;SDS011;52488;47.502;18.940;2022-09-30T04:43:46;4.93;;;4.43;;
65753;SDS011;52488;47.502;18.940;2022-09-30T04:44:49;6.03;;;4.68;;
65753;SDS011;52488;47.502;18.940;2022-09-30T04:45:52;5.25;;;4.50;;
65753;SDS011;52488;47.502;18.940;2022-09-30T04:46:55;5.60;;;4.85;;
65753;SDS011;52488;47.502;18.940;2022-09-30T04:47:58;6.32;;;4.72;;
65753;SDS011;52488;47.502;18.940;2022-09-30T04:49:02;5.97;;;5.05;;
65753;SDS011;52488;47.502;18.940;2022-09-30T04:50:10;9.60;;;5.68;;
65753;SDS011;52488;47.502;18.940;2022-09-30T04:51:13;5.75;;;4.50;;
65753;SDS011;52488;47.502;18.940;2022-09-30T04:52:18;6.25;;;5.18;;
65753;SDS011;52488;47.502;18.940;2022-09-30T04:53:21;6.30;;;5.00;;
65753;SDS011;52488;47.502;18.940;2022-09-30T04:54:23;5.40;;;4.62;;
65753;SDS011;52488;47.502;18.940;2022-09-30T04:55:26;7.20;;;5.22;;
65753;SDS011;52488;47.502;18.940;2022-09-30T04:56:29;5.53;;;4.78;;
65753;SDS011;52488;47.502;18.940;2022-09-30T04:57:32;7.10;;;5.47;;
65753;SDS011;52488;47.502;18.940;2022-09-30T04:58:34;6.65;;;4.68;;
65753;SDS011;52488;47.502;18.940;2022-09-30T04:59:38;6.20;;;4.55;;
65753;SDS011;52488;47.502;18.940;2022-09-30T05:00:41;6.12;;;4.78;;
65753;SDS011;52488;47.502;18.940;2022-09-30T05:01:45;5.97;;;4.85;;
65753;SDS011;52488;47.502;18.940;2022-09-30T05:02:48;7.12;;;4.68;;
65753;SDS011;52488;47.502;18.940;2022-09-30T05:03:52;5.78;;;4.57;;
65753;SDS011;52488;47.502;18.940;2022-09-30T05:04:55;6.00;;;4.10;;
65753;SDS011;52488;47.502;18.940;2022-09-30T05:05:58;6.20;;;4.62;;
65753;SDS011;52488;47.502;18.940;2022-09-30T05:07:01;4.90;;;4.00;;
65753;SDS011;52488;47.502;18.940;2022-09-30T05:08:05;6.28;;;4.25;;
65753;SDS011;52488;47.502;18.940;2022-09-30T05:09:07;7.00;;;4.18;;
65753;SDS011;52488;47.502;18.940;2022-09-30T05:10:10;5.25;;;4.30;;
65753;SDS011;52488;47.502;18.940;2022-09-30T05:11:14;4.97;;;3.90;;
65753;SDS011;52488;47.502;18.940;2022-09-30T05:12:19;5.35;;;4.30;;
65753;SDS011;52488;47.502;18.940;2022-09-30T05:13:28;5.30;;;4.12;;
65753;SDS011;52488;47.502;18.940;2022-09-30T05:14:33;5.55;;;4.28;;
65753;SDS011;52488;47.502;18.940;2022-09-30T05:15:35;4.80;;;3.70;;
65753;SDS011;52488;47.502;18.940;2022-09-30T05:16:38;9.05;;;4.15;;
65753;SDS011;52488;47.502;18.940;2022-09-30T05:17:41;8.45;;;4.57;;
65753;SDS011;52488;47.502;18.940;2022-09-30T05:18:43;5.32;;;4.60;;
65753;SDS011;52488;47.502;18.940;2022-09-30T05:19:47;6.12;;;4.53;;
65753;SDS011;52488;47.502;18.940;2022-09-30T05:20:51;5.03;;;4.05;;
65753;SDS011;52488;47.502;18.940;2022-09-30T05:21:54;7.35;;;4.00;;
65753;SDS011;52488;47.502;18.940;2022-09-30T05:22:57;6.95;;;4.03;;
65753;SDS011;52488;47.502;18.940;2022-09-30T05:24:00;5.57;;;4.40;;
65753;SDS011;52488;47.502;18.940;2022-09-30T05:25:03;4.80;;;3.87;;
65753;SDS011;52488;47.502;18.940;2022-09-30T05:26:06;5.57;;;4.37;;
65753;SDS011;52488;47.502;18.940;2022-09-30T05:27:13;5.18;;;4.00;;
65753;SDS011;52488;47.502;18.940;2022-09-30T05:28:18;5.87;;;3.92;;
65753;SDS011;52488;47.502;18.940;2022-09-30T05:29:21;5.32;;;4.18;;
65753;SDS011;52488;47.502;18.940;2022-09-30T05:30:24;6.22;;;4.78;;
65753;SDS011;52488;47.502;18.940;2022-09-30T05:31:27;5.95;;;4.32;;
65753;SDS011;52488;47.502;18.940;2022-09-30T05:32:30;5.60;;;4.60;;
65753;SDS011;52488;47.502;18.940;2022-09-30T05:33:33;7.57;;;4.90;;
65753;SDS011;52488;47.502;18.940;2022-09-30T05:34:37;6.35;;;4.12;;
65753;SDS011;52488;47.502;18.940;2022-09-30T05:35:40;6.87;;;4.70;;
65753;SDS011;52488;47.502;18.940;2022-09-30T05:36:44;5.43;;;4.40;;
65753;SDS011;52488;47.502;18.940;2022-09-30T05:37:46;6.37;;;4.75;;
65753;SDS011;52488;47.502;18.940;2022-09-30T05:38:50;6.10;;;4.30;;
65753;SDS011;52488;47.502;18.940;2022-09-30T05:39:53;5.87;;;4.43;;
65753;SDS011;52488;47.502;18.940;2022-09-30T05:40:56;4.95;;;4.40;;
65753;SDS011;52488;47.502;18.940;2022-09-30T05:41:59;5.78;;;4.53;;
65753;SDS011;52488;47.502;18.940;2022-09-30T05:43:02;6.20;;;4.62;;
65753;SDS011;52488;47.502;18.940;2022-09-30T05:44:04;5.32;;;4.25;;
65753;SDS011;52488;47.502;18.940;2022-09-30T05:45:10;5.57;;;4.70;;
65753;SDS011;52488;47.502;18.940;2022-09-30T05:46:13;5.43;;;4.40;;
65753;SDS011;52488;47.502;18.940;2022-09-30T05:47:19;7.15;;;4.37;;
65753;SDS011;52488;47.502;18.940;2022-09-30T05:48:22;5.78;;;4.60;;
65753;SDS011;52488;47.502;18.940;2022-09-30T05:49:26;8.50;;;4.43;;
65753;SDS011;52488;47.502;18.940;2022-09-30T05:50:29;5.97;;;4.12;;
65753;SDS011;52488;47.502;18.940;2022-09-30T05:51:32;4.95;;;3.90;;
65753;SDS011;52488;47.502;18.940;2022-09-30T05:52:34;5.65;;;3.80;;
65753;SDS011;52488;47.502;18.940;2022-09-30T05:53:37;6.50;;;4.07;;
65753;SDS011;52488;47.502;18.940;2022-09-30T05:54:40;5.62;;;4.10;;
65753;SDS011;52488;47.502;18.940;2022-09-30T05:55:44;4.72;;;3.90;;
65753;SDS011;52488;47.502;18.940;2022-09-30T05:56:48;4.43;;;3.87;;
65753;SDS011;52488;47.502;18.940;2022-09-30T05:57:51;4.30;;;3.62;;
65753;SDS011;52488;47.502;18.940;2022-09-30T05:58:54;4.30;;;3.47;;
65753;SDS011;52488;47.502;18.940;2022-09-30T05:59:56;3.70;;;3.30;;
65753;SDS011;52488;47.502;18.940;2022-09-30T06:01:03;4.78;;;3.45;;
65753;SDS011;52488;47.502;18.940;2022-09-30T06:02:14;3.67;;;3.12;;
65753;SDS011;52488;47.502;18.940;2022-09-30T06:03:17;4.82;;;3.35;;
65753;SDS011;52488;47.502;18.940;2022-09-30T06:04:20;4.32;;;2.97;;
65753;SDS011;52488;47.502;18.940;2022-09-30T06:05:23;4.20;;;3.17;;
65753;SDS011;52488;47.502;18.940;2022-09-30T06:06:27;3.40;;;2.97;;
65753;SDS011;52488;47.502;18.940;2022-09-30T06:07:30;2.97;;;2.55;;
65753;SDS011;52488;47.502;18.940;2022-09-30T06:08:34;3.37;;;2.83;;
65753;SDS011;52488;47.502;18.940;2022-09-30T06:09:37;3.67;;;2.70;;
65753;SDS011;52488;47.502;18.940;2022-09-30T06:10:40;3.12;;;2.47;;
65753;SDS011;52488;47.502;18.940;2022-09-30T06:11:44;3.35;;;2.45;;
65753;SDS011;52488;47.502;18.940;2022-09-30T06:12:47;2.62;;;2.40;;
65753;SDS011;52488;47.502;18.940;2022-09-30T06:13:49;3.35;;;2.60;;
65753;SDS011;52488;47.502;18.940;2022-09-30T06:14:53;2.70;;;2.45;;
65753;SDS011;52488;47.502;18.940;2022-09-30T06:15:57;2.75;;;2.53;;
65753;SDS011;52488;47.502;18.940;2022-09-30T06:17:02;3.00;;;2.65;;
65753;SDS011;52488;47.502;18.940;2022-09-30T06:18:06;3.58;;;2.75;;
65753;SDS011;52488;47.502;18.940;2022-09-30T06:19:09;4.28;;;3.00;;
65753;SDS011;52488;47.502;18.940;2022-09-30T06:20:12;3.90;;;3.17;;
65753;SDS011;52488;47.502;18.940;2022-09-30T06:21:15;3.10;;;2.60;;
65753;SDS011;52488;47.502;18.940;2022-09-30T06:22:19;3.55;;;2.78;;
65753;SDS011;52488;47.502;18.940;2022-09-30T06:23:22;3.22;;;2.70;;
65753;SDS011;52488;47.502;18.940;2022-09-30T06:24:25;3.55;;;2.95;;
65753;SDS011;52488;47.502;18.940;2022-09-30T06:25:28;3.33;;;2.75;;
65753;SDS011;52488;47.502;18.940;2022-09-30T06:26:32;3.75;;;2.75;;
65753;SDS011;52488;47.502;18.940;2022-09-30T06:27:35;2.83;;;2.53;;
65753;SDS011;52488;47.502;18.940;2022-09-30T06:28:39;3.60;;;2.72;;
65753;SDS011;52488;47.502;18.940;2022-09-30T06:29:43;2.53;;;2.33;;
65753;SDS011;52488;47.502;18.940;2022-09-30T06:30:46;2.70;;;2.50;;
65753;SDS011;52488;47.502;18.940;2022-09-30T06:31:49;2.50;;;2.30;;
65753;SDS011;52488;47.502;18.940;2022-09-30T06:32:54;3.10;;;2.45;;
65753;SDS011;52488;47.502;18.940;2022-09-30T06:33:58;2.85;;;2.37;;
65753;SDS011;52488;47.502;18.940;2022-09-30T06:35:01;2.67;;;2.37;;
65753;SDS011;52488;47.502;18.940;2022-09-30T06:36:05;2.33;;;2.12;;
65753;SDS011;52488;47.502;18.940;2022-09-30T06:37:08;2.12;;;1.98;;
65753;SDS011;52488;47.502;18.940;2022-09-30T06:38:13;2.22;;;2.00;;
65753;SDS011;52488;47.502;18.940;2022-09-30T06:39:17;2.62;;;2.10;;
65753;SDS011;52488;47.502;18.940;2022-09-30T06:40:20;2.12;;;1.92;;
65753;SDS011;52488;47.502;18.940;2022-09-30T06:41:22;4.53;;;2.15;;
65753;SDS011;52488;47.502;18.940;2022-09-30T06:42:29;2.20;;;1.90;;
65753;SDS011;52488;47.502;18.940;2022-09-30T06:43:31;2.45;;;2.10;;
65753;SDS011;52488;47.502;18.940;2022-09-30T06:44:42;1.98;;;1.77;;
65753;SDS011;52488;47.502;18.940;2022-09-30T06:45:54;1.95;;;1.58;;
65753;SDS011;52488;47.502;18.940;2022-09-30T06:47:12;2.45;;;1.20;;
65753;SDS011;52488;47.502;18.940;2022-09-30T06:48:26;2.25;;;1.55;;
65753;SDS011;52488;47.502;18.940;2022-09-30T06:49:39;2.22;;;1.70;;
65753;SDS011;52488;47.502;18.940;2022-09-30T06:50:50;2.17;;;1.70;;
65753;SDS011;52488;47.502;18.940;2022-09-30T06:52:03;2.42;;;1.70;;
65753;SDS011;52488;47.502;18.940;2022-09-30T06:53:06;3.33;;;1.80;;
65753;SDS011;52488;47.502;18.940;2022-09-30T06:54:10;2.05;;;1.55;;
65753;SDS011;52488;47.502;18.940;2022-09-30T06:55:13;6.68;;;1.92;;
65753;SDS011;52488;47.502;18.940;2022-09-30T06:56:16;4.62;;;1.90;;
65753;SDS011;52488;47.502;18.940;2022-09-30T06:57:19;3.87;;;1.73;;
65753;SDS011;52488;47.502;18.940;2022-09-30T06:58:26;1.67;;;1.30;;
65753;SDS011;52488;47.502;18.940;2022-09-30T06:59:29;1.83;;;1.02;;
65753;SDS011;52488;47.502;18.940;2022-09-30T07:00:32;3.35;;;1.05;;
65753;SDS011;52488;47.502;18.940;2022-09-30T07:01:34;1.35;;;1.25;;
65753;SDS011;52488;47.502;18.940;2022-09-30T07:02:37;1.00;;;0.90;;
65753;SDS011;52488;47.502;18.940;2022-09-30T07:03:42;1.27;;;0.85;;
65753;SDS011;52488;47.502;18.940;2022-09-30T07:04:46;2.05;;;0.65;;
65753;SDS011;52488;47.502;18.940;2022-09-30T07:05:56;0.60;;;0.60;;
65753;SDS011;52488;47.502;18.940;2022-09-30T07:08:04;0.50;;;0.50;;
65753;SDS011;52488;47.502;18.940;2022-09-30T07:09:07;0.80;;;0.80;;
65753;SDS011;52488;47.502;18.940;2022-09-30T07:10:11;0.70;;;0.70;;
65753;SDS011;52488;47.502;18.940;2022-09-30T07:11:13;1.52;;;0.85;;
65753;SDS011;52488;47.502;18.940;2022-09-30T07:12:16;0.70;;;0.70;;
65753;SDS011;52488;47.502;18.940;2022-09-30T07:13:19;1.40;;;0.60;;
65753;SDS011;52488;47.502;18.940;2022-09-30T07:14:22;0.65;;;0.65;;
65753;SDS011;52488;47.502;18.940;2022-09-30T07:15:25;1.60;;;0.62;;
65753;SDS011;52488;47.502;18.940;2022-09-30T07:16:28;0.50;;;0.50;;
65753;SDS011;52488;47.502;18.940;2022-09-30T07:17:32;2.42;;;0.50;;
65753;SDS011;52488;47.502;18.940;2022-09-30T07:18:35;0.90;;;0.70;;
65753;SDS011;52488;47.502;18.940;2022-09-30T07:19:39;0.52;;;0.50;;
65753;SDS011;52488;47.502;18.940;2022-09-30T07:20:46;0.50;;;0.50;;
65753;SDS011;52488;47.502;18.940;2022-09-30T07:21:49;0.50;;;0.50;;
65753;SDS011;52488;47.502;18.940;2022-09-30T07:22:52;2.35;;;0.68;;
65753;SDS011;52488;47.502;18.940;2022-09-30T07:23:55;0.80;;;0.60;;
65753;SDS011;52488;47.502;18.940;2022-09-30T07:25:00;2.05;;;0.70;;
65753;SDS011;52488;47.502;18.940;2022-09-30T07:26:08;0.80;;;0.68;;
65753;SDS011;52488;47.502;18.940;2022-09-30T07:27:11;1.20;;;1.10;;
65753;SDS011;52488;47.502;18.940;2022-09-30T07:28:14;1.55;;;1.08;;
65753;SDS011;52488;47.502;18.940;2022-09-30T07:29:18;1.20;;;1.02;;